createdAt,value
2023-02-08T00:01:30.838Z,52.97
2023-02-08T00:03:59.728Z,53.27
2023-02-08T00:06:28.445Z,49.50
2023-02-08T00:08:58.452Z,52.17
2023-02-08T00:11:27.128Z,51.00
2023-02-08T00:13:55.493Z,51.07
2023-02-08T00:16:24.675Z,49.13
2023-02-08T00:18:53.106Z,50.00
2023-02-08T00:21:22.084Z,52.60
2023-02-08T00:23:50.472Z,49.40
2023-02-08T00:26:20.480Z,46.93
2023-02-08T00:28:49.034Z,49.60
2023-02-08T00:31:19.859Z,50.23
2023-02-08T00:33:48.355Z,50.20
2023-02-08T00:36:17.119Z,52.73
2023-02-08T00:38:45.691Z,55.67
2023-02-08T00:41:14.389Z,54.97
2023-02-08T00:43:44.149Z,54.50
2023-02-08T00:46:12.930Z,55.27
2023-02-08T00:48:41.324Z,52.60
2023-02-08T00:51:13.536Z,56.80
2023-02-08T00:53:44.034Z,57.00
2023-02-08T00:56:15.022Z,55.20
2023-02-08T00:58:45.378Z,57.83
2023-02-08T01:01:14.792Z,55.33
2023-02-08T01:03:44.664Z,57.37
2023-02-08T01:06:16.478Z,57.53
2023-02-08T01:08:46.152Z,57.43
2023-02-08T01:11:17.619Z,57.20
2023-02-08T01:13:47.751Z,63.23
2023-02-08T01:16:20.404Z,61.03
2023-02-08T01:18:51.464Z,65.47
2023-02-08T01:21:21.605Z,67.13
2023-02-08T01:23:50.610Z,66.77
2023-02-08T01:26:34.846Z,67.53
2023-02-08T01:29:05.038Z,66.53
2023-02-08T01:31:35.698Z,68.23
2023-02-08T01:34:05.719Z,64.63
2023-02-08T01:36:35.095Z,64.47
2023-02-08T01:39:04.206Z,62.90
2023-02-08T01:41:34.785Z,66.43
2023-02-08T01:44:08.833Z,66.13
2023-02-08T01:46:38.919Z,67.93
2023-02-08T01:49:12.710Z,67.07
2023-02-08T01:51:46.394Z,63.93
2023-02-08T01:54:18.226Z,63.70
2023-02-08T01:56:48.176Z,63.47
2023-02-08T01:59:23.492Z,63.53
2023-02-08T02:01:55.556Z,64.50
2023-02-08T02:04:24.201Z,61.63
2023-02-08T02:06:57.156Z,63.77
2023-02-08T02:09:29.929Z,64.07
2023-02-08T02:12:00.104Z,62.37
2023-02-08T02:14:30.334Z,62.57
2023-02-08T02:17:01.078Z,63.30
2023-02-08T02:19:41.667Z,68.43
2023-02-08T02:22:41.265Z,67.73
2023-02-08T02:25:40.084Z,65.10
2023-02-08T02:28:46.371Z,68.60
2023-02-08T02:31:44.455Z,67.20
2023-02-08T02:34:19.637Z,68.53
2023-02-08T02:36:54.275Z,69.43
2023-02-08T02:39:33.977Z,68.00
2023-02-08T02:42:29.007Z,65.37
2023-02-08T02:45:07.339Z,68.43
2023-02-08T02:47:42.316Z,64.93
2023-02-08T02:50:17.785Z,67.40
2023-02-08T02:52:51.161Z,66.30
2023-02-08T02:55:24.292Z,66.20
2023-02-08T02:57:57.755Z,63.80
2023-02-08T03:00:28.927Z,65.20
2023-02-08T03:02:59.198Z,65.00
2023-02-08T03:05:30.181Z,64.23
2023-02-08T03:08:15.485Z,61.63
2023-02-08T03:11:19.845Z,61.37
2023-02-08T03:14:26.187Z,61.00
2023-02-08T03:17:07.774Z,61.73
2023-02-08T03:19:42.689Z,63.17
2023-02-08T03:22:15.787Z,64.43
2023-02-08T03:24:52.957Z,62.60
2023-02-08T03:27:29.744Z,60.23
2023-02-08T03:30:03.078Z,58.93
2023-02-08T03:32:39.904Z,62.47
2023-02-08T03:35:16.305Z,60.00
2023-02-08T03:37:49.807Z,61.33
2023-02-08T03:40:22.263Z,59.00
2023-02-08T03:42:53.744Z,58.53
2023-02-08T03:45:28.158Z,59.10
2023-02-08T03:48:01.121Z,59.37
2023-02-08T03:50:34.386Z,58.27
2023-02-08T03:53:04.983Z,58.10
2023-02-08T03:55:37.165Z,60.17
2023-02-08T03:58:12.462Z,58.53
2023-02-08T04:00:45.440Z,58.13
2023-02-08T04:03:18.359Z,61.63
2023-02-08T04:05:48.247Z,64.90
2023-02-08T04:08:17.168Z,66.63
2023-02-08T04:10:46.070Z,67.63
2023-02-08T04:13:14.760Z,67.90
2023-02-08T04:15:44.302Z,64.60
2023-02-08T04:18:13.337Z,64.57
2023-02-08T04:20:41.865Z,70.77
2023-02-08T04:23:12.037Z,66.20
2023-02-08T04:25:40.468Z,68.70
2023-02-08T04:28:09.278Z,66.07
2023-02-08T04:30:37.633Z,65.37
2023-02-08T04:33:06.558Z,66.43
2023-02-08T04:35:34.964Z,61.43
2023-02-08T04:38:03.606Z,68.07
2023-02-08T04:40:33.433Z,68.13
2023-02-08T04:43:02.454Z,64.03
2023-02-08T04:45:32.147Z,64.50
2023-02-08T04:48:03.401Z,65.90
2023-02-08T04:50:32.295Z,65.37
2023-02-08T04:53:00.991Z,63.50
2023-02-08T04:55:29.391Z,70.40
2023-02-08T04:58:00.048Z,62.90
2023-02-08T05:00:28.571Z,64.03
2023-02-08T05:02:59.295Z,63.50
2023-02-08T05:05:28.208Z,63.70
2023-02-08T05:07:57.337Z,68.27
2023-02-08T05:10:26.496Z,65.27
2023-02-08T05:12:55.194Z,67.07
2023-02-08T05:15:24.947Z,66.93
2023-02-08T05:17:53.599Z,64.33
2023-02-08T05:20:22.581Z,60.00
2023-02-08T05:22:51.331Z,63.70
2023-02-08T05:25:19.820Z,67.20
2023-02-08T05:27:48.862Z,69.40
2023-02-08T05:30:17.461Z,64.10
2023-02-08T05:32:47.528Z,65.30
2023-02-08T05:35:16.070Z,66.47
2023-02-08T05:37:44.750Z,67.57
2023-02-08T05:40:13.496Z,65.10
2023-02-08T05:42:43.176Z,66.00
2023-02-08T05:45:11.890Z,63.53
2023-02-08T05:47:40.569Z,64.17
2023-02-08T05:50:10.849Z,66.57
2023-02-08T05:52:39.625Z,67.17
2023-02-08T05:55:08.944Z,62.93
2023-02-08T05:57:38.121Z,62.50
2023-02-08T06:00:08.073Z,65.43
2023-02-08T06:02:44.802Z,67.03
2023-02-08T06:05:14.771Z,64.43
2023-02-08T06:07:43.572Z,64.23
2023-02-08T06:10:12.292Z,62.00
2023-02-08T06:12:41.294Z,60.50
2023-02-08T06:15:10.618Z,57.73
2023-02-08T06:17:39.355Z,61.77
2023-02-08T06:20:08.541Z,62.37
2023-02-08T06:22:39.150Z,63.30
2023-02-08T06:25:08.674Z,63.60
2023-02-08T06:27:37.462Z,63.47
2023-02-08T06:30:06.413Z,62.17
2023-02-08T06:32:35.313Z,61.53
2023-02-08T06:35:03.816Z,62.73
2023-02-08T06:37:32.537Z,63.70
2023-02-08T06:40:02.931Z,55.90
2023-02-08T06:42:31.742Z,60.37
2023-02-08T06:45:00.171Z,58.83
2023-02-08T06:47:29.071Z,59.20
2023-02-08T06:49:57.439Z,60.20
2023-02-08T06:52:26.165Z,56.93
2023-02-08T06:54:54.553Z,58.27
2023-02-08T06:57:24.674Z,57.07
2023-02-08T06:59:53.551Z,57.20
2023-02-08T07:02:23.054Z,55.80
2023-02-08T07:04:51.630Z,55.33
2023-02-08T07:07:20.400Z,57.17
2023-02-08T07:09:48.831Z,58.83
2023-02-08T07:12:17.743Z,54.40
2023-02-08T07:14:47.518Z,57.90
2023-02-08T07:17:16.157Z,74.27
2023-02-08T07:19:44.591Z,58.47
2023-02-08T07:22:13.281Z,58.40
2023-02-08T07:24:42.829Z,61.73
2023-02-08T07:27:13.000Z,63.33
2023-02-08T07:29:41.920Z,58.70
2023-02-08T07:32:13.610Z,62.83
2023-02-08T07:34:42.138Z,68.80
2023-02-08T07:37:10.864Z,62.50
2023-02-08T07:39:39.468Z,60.83
2023-02-08T07:42:09.434Z,60.03
2023-02-08T07:44:48.436Z,59.30
2023-02-08T07:47:18.645Z,61.73
2023-02-08T07:49:47.044Z,79.37
2023-02-08T07:52:15.728Z,85.70
2023-02-08T07:54:44.092Z,76.90
2023-02-08T07:57:12.857Z,72.20
2023-02-08T07:59:41.277Z,64.10
2023-02-08T08:02:10.616Z,51.80
2023-02-08T08:04:40.425Z,49.80
2023-02-08T08:07:09.051Z,48.90
2023-02-08T08:09:37.496Z,51.27
2023-02-08T08:12:06.415Z,53.27
2023-02-08T08:14:34.766Z,50.63
2023-02-08T08:17:03.425Z,52.00
2023-02-08T08:19:31.893Z,50.33
2023-02-08T08:22:01.880Z,50.07
2023-02-08T08:24:31.701Z,49.40
2023-02-08T08:27:00.700Z,50.90
2023-02-08T08:29:29.321Z,50.93
2023-02-08T08:31:57.996Z,52.57
2023-02-08T08:34:29.931Z,52.30
2023-02-08T08:36:58.944Z,51.93
2023-02-08T08:39:29.365Z,47.53
2023-02-08T08:41:59.403Z,47.23
2023-02-08T08:44:27.922Z,49.80
2023-02-08T08:46:57.107Z,48.87
2023-02-08T08:49:25.956Z,48.23
2023-02-08T08:51:55.068Z,47.73
2023-02-08T08:54:23.636Z,46.53
2023-02-08T08:56:53.726Z,45.63
2023-02-08T08:59:22.275Z,43.43
2023-02-08T09:01:50.945Z,48.57
2023-02-08T09:04:19.913Z,47.47
2023-02-08T09:06:48.593Z,42.63
2023-02-08T09:09:17.050Z,36.93
2023-02-08T09:11:45.679Z,32.10
2023-02-08T09:14:15.505Z,26.47
2023-02-08T09:16:47.467Z,18.53
2023-02-08T09:19:16.976Z,14.43
2023-02-08T09:21:46.411Z,35.00
2023-02-08T09:24:14.932Z,69.43
2023-02-08T09:26:45.788Z,40.30
2023-02-08T09:29:15.640Z,18.30
2023-02-08T09:31:44.374Z,10.13
2023-02-08T09:34:12.880Z,9.57
2023-02-08T09:36:42.345Z,10.07
2023-02-08T09:39:13.665Z,9.30
2023-02-08T09:41:57.908Z,9.40
2023-02-08T09:44:34.132Z,11.40
2023-02-08T09:47:06.996Z,9.30
2023-02-08T09:49:40.570Z,10.90
2023-02-08T09:52:14.430Z,10.80
2023-02-08T09:54:48.052Z,10.67
2023-02-08T09:57:21.928Z,10.83
2023-02-08T09:59:56.712Z,11.57
2023-02-08T10:02:28.501Z,11.03
2023-02-08T10:05:01.692Z,10.83
2023-02-08T10:07:31.654Z,9.93
2023-02-08T10:10:03.784Z,10.80
2023-02-08T10:12:45.183Z,9.27
2023-02-08T10:15:31.704Z,11.03
2023-02-08T10:18:19.469Z,10.97
2023-02-08T10:21:01.408Z,12.07
2023-02-08T10:23:45.045Z,10.43
2023-02-08T10:26:20.359Z,10.03
2023-02-08T10:29:24.601Z,10.37
2023-02-08T10:32:15.705Z,9.10
2023-02-08T10:34:48.360Z,10.13
2023-02-08T10:37:20.056Z,9.57
2023-02-08T10:39:51.051Z,10.10
2023-02-08T10:42:22.310Z,9.47
2023-02-08T10:44:58.874Z,7.87
2023-02-08T10:47:40.611Z,9.67
2023-02-08T10:50:16.990Z,8.97
2023-02-08T10:52:45.779Z,8.77
2023-02-08T10:55:16.320Z,8.80
2023-02-08T10:57:47.907Z,8.63
2023-02-08T11:00:22.319Z,9.00
2023-02-08T11:02:53.879Z,9.03
2023-02-08T11:05:33.462Z,9.07
2023-02-08T11:08:10.449Z,10.30
2023-02-08T11:10:41.167Z,10.00
2023-02-08T11:13:19.757Z,8.23
2023-02-08T11:15:51.865Z,8.83
2023-02-08T11:18:25.979Z,10.47
2023-02-08T11:20:57.566Z,8.73
2023-02-08T11:23:28.236Z,10.50
2023-02-08T11:26:15.263Z,10.90
2023-02-08T11:28:44.827Z,10.37
2023-02-08T11:31:19.870Z,9.47
2023-02-08T11:34:02.128Z,12.20
2023-02-08T11:36:32.941Z,9.90
2023-02-08T11:39:04.064Z,9.53
2023-02-08T11:41:33.443Z,10.90
2023-02-08T11:44:05.479Z,11.30
2023-02-08T11:46:36.913Z,10.83
2023-02-08T11:49:06.692Z,11.03
2023-02-08T11:51:37.426Z,11.33
2023-02-08T11:54:07.846Z,11.57
2023-02-08T11:56:36.867Z,12.17
2023-02-08T11:59:18.390Z,12.77
2023-02-08T12:01:47.437Z,11.97
2023-02-08T12:04:18.926Z,12.73
2023-02-08T12:07:18.040Z,12.67
2023-02-08T12:10:25.103Z,13.43
2023-02-08T12:13:18.537Z,15.27
2023-02-08T12:15:59.159Z,13.33
2023-02-08T12:18:47.827Z,13.70
2023-02-08T12:21:22.693Z,12.47
2023-02-08T12:23:55.806Z,12.83
2023-02-08T12:26:50.408Z,11.33
2023-02-08T12:29:48.109Z,12.67
2023-02-08T12:32:39.635Z,13.87
2023-02-08T12:35:48.179Z,15.17
2023-02-08T12:38:51.362Z,14.00
2023-02-08T12:41:24.038Z,15.50
2023-02-08T12:44:02.258Z,15.57
2023-02-08T12:46:56.804Z,16.07
2023-02-08T12:49:42.022Z,13.70
2023-02-08T12:52:25.245Z,13.67
2023-02-08T12:54:59.880Z,17.07
2023-02-08T12:57:31.948Z,17.10
2023-02-08T13:00:06.370Z,17.90
2023-02-08T13:02:46.121Z,15.47
2023-02-08T13:05:20.275Z,18.10
2023-02-08T13:07:51.611Z,17.27
2023-02-08T13:10:27.071Z,15.80
2023-02-08T13:12:59.621Z,15.40
2023-02-08T13:15:36.803Z,15.47
2023-02-08T13:18:15.073Z,15.20
2023-02-08T13:20:47.203Z,16.23
2023-02-08T13:23:22.365Z,14.13
2023-02-08T13:25:56.018Z,15.67
2023-02-08T13:28:26.535Z,14.13
2023-02-08T13:31:03.684Z,13.93
2023-02-08T13:33:46.592Z,15.30
2023-02-08T13:36:27.869Z,13.67
2023-02-08T13:38:59.352Z,15.23
2023-02-08T13:41:30.783Z,15.27
2023-02-08T13:44:02.673Z,14.97
2023-02-08T13:46:39.055Z,16.23
2023-02-08T13:49:07.834Z,15.13
2023-02-08T13:52:03.461Z,16.63
2023-02-08T13:54:32.146Z,15.80
2023-02-08T13:57:02.433Z,16.77
2023-02-08T13:59:37.959Z,15.10
2023-02-08T14:02:29.040Z,17.97
2023-02-08T14:05:35.272Z,17.33
2023-02-08T14:08:06.547Z,17.87
2023-02-08T14:10:42.057Z,16.73
2023-02-08T14:13:28.154Z,15.00
2023-02-08T14:16:28.987Z,15.53
2023-02-08T14:19:00.180Z,16.87
2023-02-08T14:21:34.227Z,15.97
2023-02-08T14:24:05.583Z,16.93
2023-02-08T14:26:36.467Z,16.43
2023-02-08T14:29:07.924Z,18.73
2023-02-08T14:31:43.420Z,17.43
2023-02-08T14:34:34.336Z,18.97
2023-02-08T14:37:07.347Z,18.60
2023-02-08T14:39:37.372Z,18.07
2023-02-08T14:42:09.017Z,19.20
2023-02-08T14:45:01.586Z,19.87
2023-02-08T14:48:12.148Z,17.90
2023-02-08T14:50:51.209Z,19.40
2023-02-08T14:53:33.060Z,20.80
2023-02-08T14:56:07.544Z,18.60
2023-02-08T14:58:39.329Z,21.07
2023-02-08T15:01:15.387Z,20.93
2023-02-08T15:03:45.349Z,22.40
2023-02-08T15:06:50.298Z,19.70
2023-02-08T15:09:21.695Z,18.83
2023-02-08T15:12:00.695Z,21.23
2023-02-08T15:14:31.294Z,19.37
2023-02-08T15:17:02.251Z,20.53
2023-02-08T15:19:35.156Z,19.43
2023-02-08T15:22:29.330Z,19.87
2023-02-08T15:25:01.518Z,18.00
2023-02-08T15:27:32.852Z,19.70
2023-02-08T15:30:02.314Z,21.00
2023-02-08T15:32:32.253Z,21.63
2023-02-08T15:35:03.345Z,21.53
2023-02-08T15:37:35.273Z,20.90
2023-02-08T15:40:05.194Z,20.87
2023-02-08T15:42:35.362Z,21.30
2023-02-08T15:45:04.699Z,22.47
2023-02-08T15:47:37.942Z,20.20
2023-02-08T15:50:09.368Z,19.53
2023-02-08T15:52:38.361Z,21.30
2023-02-08T15:55:08.907Z,20.40
2023-02-08T15:57:44.009Z,20.07
2023-02-08T16:00:17.604Z,21.10
2023-02-08T16:02:52.663Z,20.67
2023-02-08T16:05:24.414Z,20.90
2023-02-08T16:07:53.114Z,22.47
2023-02-08T16:10:26.442Z,20.33
2023-02-08T16:12:57.784Z,20.53
2023-02-08T16:15:44.941Z,19.90
2023-02-08T16:18:36.180Z,19.70
2023-02-08T16:21:07.354Z,19.97
2023-02-08T16:23:39.751Z,18.93
2023-02-08T16:26:17.123Z,18.63
2023-02-08T16:28:52.398Z,20.30
2023-02-08T16:31:24.734Z,19.83
2023-02-08T16:34:01.451Z,18.90
2023-02-08T16:36:34.812Z,21.03
2023-02-08T16:39:46.828Z,21.67
2023-02-08T16:42:40.936Z,18.90
2023-02-08T16:45:20.412Z,21.20
2023-02-08T16:47:52.622Z,20.23
2023-02-08T16:50:24.713Z,21.13
2023-02-08T16:52:56.109Z,20.33
2023-02-08T16:55:27.546Z,20.73
2023-02-08T16:57:57.784Z,21.50
2023-02-08T17:00:28.094Z,23.00
2023-02-08T17:02:57.523Z,21.70
2023-02-08T17:05:30.612Z,23.87
2023-02-08T17:08:00.411Z,22.30
2023-02-08T17:10:31.407Z,22.10
2023-02-08T17:13:18.863Z,24.13
2023-02-08T17:15:49.946Z,21.43
2023-02-08T17:18:18.971Z,21.83
2023-02-08T17:20:48.967Z,24.50
2023-02-08T17:23:18.104Z,21.93
2023-02-08T17:25:46.763Z,22.20
2023-02-08T17:28:18.762Z,21.73
2023-02-08T17:30:48.540Z,22.00
2023-02-08T17:33:21.141Z,23.37
2023-02-08T17:35:52.833Z,24.33
2023-02-08T17:38:22.338Z,20.70
2023-02-08T17:40:51.285Z,21.70
2023-02-08T17:43:19.999Z,21.30
2023-02-08T17:45:48.453Z,22.13
2023-02-08T17:48:17.232Z,22.87
2023-02-08T17:50:50.914Z,21.80
2023-02-08T17:53:21.145Z,22.60
2023-02-08T17:55:49.950Z,22.97
2023-02-08T17:58:18.737Z,21.73
2023-02-08T18:00:47.483Z,27.50
2023-02-08T18:03:17.237Z,27.03
2023-02-08T18:05:46.107Z,24.87
2023-02-08T18:08:14.844Z,22.73
2023-02-08T18:10:45.156Z,21.73
2023-02-08T18:13:13.779Z,21.93
2023-02-08T18:15:43.021Z,25.37
2023-02-08T18:18:11.900Z,23.63
2023-02-08T18:20:44.618Z,24.60
2023-02-08T18:23:13.111Z,22.77
2023-02-08T18:25:42.634Z,25.73
2023-02-08T18:28:15.182Z,24.60
2023-02-08T18:30:44.188Z,24.83
2023-02-08T18:33:13.663Z,24.27
2023-02-08T18:35:48.575Z,23.20
2023-02-08T18:38:16.934Z,24.37
2023-02-08T18:40:45.579Z,26.77
2023-02-08T18:43:15.353Z,22.53
2023-02-08T18:45:45.852Z,25.13
2023-02-08T18:48:14.730Z,24.87
2023-02-08T18:50:43.786Z,25.23
2023-02-08T18:53:12.232Z,26.90
2023-02-08T18:55:41.069Z,23.93
2023-02-08T18:58:09.529Z,24.60
2023-02-08T19:00:40.376Z,25.07
2023-02-08T19:03:10.021Z,27.70
2023-02-08T19:05:39.237Z,27.17
2023-02-08T19:08:07.696Z,25.53
2023-02-08T19:10:37.064Z,25.07
2023-02-08T19:13:07.617Z,25.47
2023-02-08T19:15:38.021Z,25.77
2023-02-08T19:18:08.894Z,27.20
2023-02-08T19:20:38.931Z,27.27
2023-02-08T19:23:07.672Z,28.53
2023-02-08T19:25:39.278Z,36.53
2023-02-08T19:28:08.004Z,27.07
2023-02-08T19:30:36.825Z,28.33
2023-02-08T19:33:05.360Z,26.30
2023-02-08T19:35:39.349Z,26.97
2023-02-08T19:38:07.774Z,29.67
2023-02-08T19:40:36.514Z,28.60
2023-02-08T19:43:05.027Z,25.20
2023-02-08T19:45:35.602Z,26.50
2023-02-08T19:48:04.288Z,23.73
2023-02-08T19:50:33.089Z,26.87
2023-02-08T19:53:03.030Z,29.07
2023-02-08T19:55:31.953Z,27.77
2023-02-08T19:58:00.478Z,28.83
2023-02-08T20:00:29.297Z,28.00
2023-02-08T20:02:57.839Z,25.97
2023-02-08T20:05:26.664Z,27.20
2023-02-08T20:07:55.219Z,23.30
2023-02-08T20:10:25.340Z,25.00
2023-02-08T20:12:53.753Z,26.77
2023-02-08T20:15:22.509Z,28.30
2023-02-08T20:17:51.034Z,26.07
2023-02-08T20:20:21.391Z,26.03
2023-02-08T20:22:49.888Z,26.63
2023-02-08T20:25:18.827Z,27.20
2023-02-08T20:27:48.655Z,28.17
2023-02-08T20:30:18.286Z,25.43
2023-02-08T20:32:47.228Z,28.20
2023-02-08T20:35:16.420Z,27.77
2023-02-08T20:37:45.218Z,27.23
2023-02-08T20:40:16.076Z,27.87
2023-02-08T20:42:44.662Z,26.73
2023-02-08T20:45:15.409Z,28.33
2023-02-08T20:47:46.800Z,29.03
2023-02-08T20:50:19.484Z,28.77
2023-02-08T20:52:49.347Z,26.07
2023-02-08T20:55:18.211Z,27.43
2023-02-08T20:57:46.832Z,30.93
2023-02-08T21:00:17.815Z,29.50
2023-02-08T21:02:46.399Z,26.40
2023-02-08T21:05:15.351Z,30.93
2023-02-08T21:07:43.873Z,27.07
2023-02-08T21:10:12.566Z,28.70
2023-02-08T21:12:41.035Z,27.27
2023-02-08T21:15:10.705Z,28.47
2023-02-08T21:17:41.177Z,30.37
2023-02-08T21:20:12.009Z,29.17
2023-02-08T21:22:41.875Z,29.23
2023-02-08T21:25:10.941Z,28.27
2023-02-08T21:27:39.373Z,27.87
2023-02-08T21:30:09.069Z,32.83
2023-02-08T21:32:37.604Z,28.17
2023-02-08T21:35:08.490Z,27.57
2023-02-08T21:37:36.930Z,28.90
2023-02-08T21:40:06.435Z,28.53
2023-02-08T21:42:34.968Z,26.60
2023-02-08T21:45:03.683Z,26.90
2023-02-08T21:47:32.084Z,25.13
2023-02-08T21:50:18.332Z,28.87
2023-02-08T21:53:05.468Z,28.27
2023-02-08T21:55:34.176Z,28.50
2023-02-08T21:58:02.611Z,27.90
2023-02-08T22:00:31.412Z,29.13
2023-02-08T22:02:59.985Z,26.97
2023-02-08T22:05:28.921Z,26.43
2023-02-08T22:08:00.324Z,26.57
2023-02-08T22:10:31.669Z,28.03
2023-02-08T22:13:00.421Z,28.13
2023-02-08T22:15:30.931Z,29.97
2023-02-08T22:18:01.610Z,26.57
2023-02-08T22:20:31.531Z,32.13
2023-02-08T22:23:01.881Z,31.03
2023-02-08T22:25:31.016Z,28.53
2023-02-08T22:27:59.472Z,29.87
2023-02-08T22:30:28.416Z,27.13
2023-02-08T22:32:56.921Z,26.93
2023-02-08T22:35:25.657Z,26.70
2023-02-08T22:37:54.279Z,27.70
2023-02-08T22:40:24.412Z,29.47
2023-02-08T22:42:52.966Z,26.63
2023-02-08T22:45:21.752Z,27.97
2023-02-08T22:47:50.192Z,28.23
2023-02-08T22:50:18.944Z,27.00
2023-02-08T22:52:47.445Z,29.70
2023-02-08T22:55:16.130Z,29.93
2023-02-08T22:57:46.055Z,26.87
2023-02-08T23:00:16.293Z,31.37
2023-02-08T23:02:44.967Z,27.50
2023-02-08T23:05:14.494Z,27.30
2023-02-08T23:07:43.064Z,26.47
2023-02-08T23:10:12.851Z,30.17
2023-02-08T23:12:41.401Z,28.33
2023-02-08T23:15:12.965Z,28.97
2023-02-08T23:17:41.616Z,29.13
2023-02-08T23:20:11.388Z,26.53
2023-02-08T23:22:39.876Z,26.33
2023-02-08T23:25:08.920Z,28.83
2023-02-08T23:27:37.441Z,26.63
2023-02-08T23:30:09.506Z,27.53
2023-02-08T23:32:39.767Z,28.40
2023-02-08T23:35:10.288Z,26.93
2023-02-08T23:37:39.905Z,28.83
2023-02-08T23:40:09.571Z,26.33
2023-02-08T23:42:38.056Z,25.83
2023-02-08T23:45:07.671Z,28.47
2023-02-08T23:47:36.469Z,26.47
2023-02-08T23:50:07.024Z,26.80
2023-02-08T23:52:36.627Z,26.53
2023-02-08T23:55:06.732Z,27.50
2023-02-08T23:57:37.055Z,27.23
